Latest Weather Observations for Laverton

IDW60801

Issued at 2:02 pm WST Friday 30 January 2015 (issued every 30 minutes, with the page automatically refreshed every 10 minutes)

About weather observations | Map of weather stations | Latest weather observations for WA | Other Formats
Station Details ID: 012305 Name: LAVERTON AERO Lat: -28.61 Lon: 122.42 Height: 464.3 m
Data from the previous 72 hours. | See also: Recent months at Laverton
Date/Time
WST
Temp
°C
App
Temp
°C
Dew
Point
Rel
Hum
%
Delta-T
°C
Wind Press
QNH
hPa
Press
MSL
hPa
Rain
since 9 am
mm
Dir
 
Spd
km/h
Gust
km/h
Spd
kts
Gust
kts
30/02:00pm 35.8 30.1 -0.5 10 18.3 NE 19 24 10 13 1010.6 1007.3 0.0
30/01:30pm 35.4 29.5 -0.8 10 18.1 E 20 32 11 17 1010.9 1007.6 0.0
30/01:00pm 36.1 30.8 -0.3 10 18.4 ENE 17 30 9 16 1011.2 1007.9 0.0
30/12:30pm 35.9 30.2 -0.5 10 18.3 ESE 19 32 10 17 1011.5 1008.2 0.0
30/12:00pm 36.0 30.3 -0.4 10 18.4 SE 19 26 10 14 1012.1 1008.7 0.0
30/11:30am 33.5 28.5 1.3 13 16.4 ESE 17 28 9 15 1012.5 1009.1 0.0
30/11:00am 32.5 28.4 2.5 15 15.5 E 13 20 7 11 1012.7 1009.4 0.0
30/10:30am 31.9 28.5 2.1 15 15.3 NE 9 19 5 10 1013.2 1009.9 0.0
30/10:00am 30.2 26.3 3.3 18 13.9 E 13 24 7 13 1013.3 1010.0 0.0
30/09:30am 29.4 24.7 3.4 19 13.4 ENE 17 22 9 12 1013.5 1010.2 0.0
30/09:00am 29.0 23.8 3.8 20 13.0 ENE 20 28 11 15 1013.5 1010.2 0.0
30/08:30am 28.7 23.1 5.5 23 12.3 E 24 32 13 17 1013.0 1009.7 0.0
30/08:00am 27.4 20.7 5.6 25 11.5 E 30 39 16 21 1012.9 1009.6 0.0
30/07:30am 27.2 21.5 6.6 27 11.1 E 26 37 14 20 1012.9 1009.6 0.0
30/07:00am 26.2 21.0 5.7 27 10.8 ESE 22 33 12 18 1013.0 1009.7 0.0
30/06:30am 25.1 19.9 5.3 28 10.3 ESE 22 28 12 15 1012.8 1009.5 0.0
30/06:00am 24.2 19.7 4.0 27 10.2 ESE 17 20 9 11 1012.6 1009.3 0.0
30/05:30am 23.0 19.2 4.0 29 9.5 E 13 17 7 9 1012.4 1009.0 0.0
30/05:00am 22.9 19.7 4.9 31 9.2 E 11 15 6 8 1012.3 1008.9 0.0
30/04:30am 22.7 21.2 5.2 32 8.9 ENE 2 7 1 4 1012.3 1008.9 0.0
30/04:00am 22.5 19.4 5.4 33 8.8 N 11 17 6 9 1012.2 1008.8 0.0
30/03:30am 23.2 20.1 5.6 32 9.1 ENE 11 13 6 7 1011.8 1008.5 0.0
30/03:00am 24.1 20.7 5.9 31 9.5 E 13 15 7 8 1011.6 1008.3 0.0
30/02:30am 24.5 21.8 5.8 30 9.8 ENE 9 13 5 7 1011.4 1008.1 0.0
30/02:00am 25.1 20.9 5.8 29 10.1 ENE 17 19 9 10 1011.2 1007.9 0.0
30/01:30am 25.0 21.2 5.7 29 10.1 ENE 15 17 8 9 1011.2 1007.9 0.0
30/01:00am 25.3 21.4 5.5 28 10.3 ENE 15 17 8 9 1011.0 1007.7 0.0
30/12:30am 26.0 22.5 5.6 27 10.7 ENE 13 15 7 8 1011.1 1007.8 0.0
30/12:00am 26.8 23.5 6.2 27 11.0 ENE 13 17 7 9 1011.2 1007.9 0.0
 
Date/Time
WST
Temp
°C
App
Temp
°C
Dew
Point
Rel
Hum
%
Delta-T
°C
Wind Press
QNH
hPa
Press
MSL
hPa
Rain
since 9 am
mm
Dir
 
Spd
km/h
Gust
km/h
Spd
kts
Gust
kts
29/11:30pm 27.5 23.5 6.8 27 11.2 E 17 22 9 12 1011.2 1007.9 0.0
29/11:00pm 28.0 24.5 7.3 27 11.3 ENE 15 19 8 10 1011.2 1007.9 0.0
29/10:30pm 28.4 25.0 7.6 27 11.4 E 15 19 8 10 1011.1 1007.8 0.0
29/10:00pm 29.0 25.5 8.7 28 11.4 ENE 17 22 9 12 1011.2 1007.9 0.0
29/09:30pm 29.5 25.6 8.5 27 11.8 ENE 19 24 10 13 1011.0 1007.7 0.0
29/09:00pm 30.2 26.1 8.6 26 12.2 ENE 20 28 11 15 1010.9 1007.6 0.0
29/08:30pm 30.8 25.8 7.9 24 12.8 ENE 24 33 13 18 1010.6 1007.3 0.0
29/08:00pm 31.4 25.4 7.1 22 13.5 ENE 28 39 15 21 1010.2 1006.8 0.0
29/07:30pm 31.9 26.2 8.2 23 13.4 ENE 28 37 15 20 1009.7 1006.3 0.0
29/07:00pm 32.7 26.4 7.5 21 14.2 ENE 30 39 16 21 1009.0 1005.7 0.0
29/06:30pm 33.8 27.4 5.4 17 15.5 ENE 28 37 15 20 1008.6 1005.3 0.0
29/06:00pm 34.9 29.1 4.4 15 16.5 E 24 35 13 19 1008.0 1004.6 0.0
29/05:30pm 35.3 29.4 3.8 14 16.9 E 24 35 13 19 1007.7 1004.3 0.0
29/05:00pm 36.0 30.9 3.3 13 17.5 E 19 30 10 16 1007.6 1004.2 0.0
29/04:30pm 37.0 34.3 2.9 12 18.2 WNW 6 13 3 7 1007.6 1004.2 0.0
29/04:00pm 36.2 32.3 3.4 13 17.6 S 13 20 7 11 1007.9 1004.5 0.0
29/03:30pm 35.8 31.1 3.1 13 17.4 ESE 17 32 9 17 1008.1 1004.7 0.0
29/03:00pm 36.6 31.8 2.6 12 18.1 ESE 17 24 9 13 1008.4 1005.0 0.0
29/02:42pm 37.0 33.0 2.9 12 18.2 S 13 54 7 29 1008.7 1005.4 0.0
29/02:30pm 36.2 33.1 3.4 13 17.6 W 9 19 5 10 1008.8 1005.5 0.0
29/02:00pm 35.4 30.5 1.7 12 17.5 NNE 17 39 9 21 1009.3 1006.0 0.0
29/01:30pm 36.0 32.5 3.3 13 17.5 NNE 11 24 6 13 1009.7 1006.3 0.0
29/01:00pm 35.5 31.7 3.9 14 17.0 ENE 13 20 7 11 1010.0 1006.6 0.0
29/12:30pm 35.4 32.0 3.8 14 17.0 SSW 11 17 6 9 1010.2 1006.8 0.0
29/12:00pm 35.1 31.4 4.6 15 16.6 ESE 13 24 7 13 1010.6 1007.3 0.0
29/11:30am 35.5 31.5 2.9 13 17.3 NNE 13 30 7 16 1011.0 1007.7 0.0
29/11:00am 35.2 31.5 2.6 13 17.2 E 11 22 6 12 1011.3 1008.0 0.0
29/10:30am 35.8 30.1 0.8 11 18.0 NE 20 32 11 17 1011.6 1008.3 0.0
29/10:00am 34.6 29.0 1.1 12 17.2 NE 20 30 11 16 1012.0 1008.6 0.0
29/09:30am 33.6 28.0 1.4 13 16.5 ENE 20 28 11 15 1012.3 1008.9 0.0
29/09:00am 32.4 26.1 1.5 14 15.7 E 24 33 13 18 1012.3 1008.9 0.0
29/08:30am 30.6 24.9 2.8 17 14.3 ENE 22 35 12 19 1012.3 1008.9 0.0
29/08:00am 29.6 23.1 2.8 18 13.7 ENE 26 35 14 19 1012.3 1008.9 0.0
29/07:30am 28.2 21.4 3.1 20 12.8 ENE 28 35 15 19 1012.4 1009.0 0.0
29/07:00am 27.0 21.3 2.8 21 12.2 E 22 30 12 16 1012.3 1008.9 0.0
29/06:30am 25.6 20.2 2.3 22 11.5 E 20 26 11 14 1012.1 1008.7 0.0
29/06:00am 24.9 20.0 1.7 22 11.3 ESE 17 22 9 12 1011.7 1008.4 0.0
29/05:30am 24.9 20.3 1.7 22 11.3 ESE 15 22 8 12 1011.5 1008.2 0.0
29/05:00am 25.2 20.6 1.3 21 11.6 E 15 19 8 10 1011.2 1007.9 0.0
29/04:30am 25.7 20.7 1.1 20 11.9 E 17 20 9 11 1011.0 1007.7 0.0
29/04:00am 26.3 20.8 0.9 19 12.3 E 19 22 10 12 1011.0 1007.7 0.0
29/03:30am 26.9 21.8 0.6 18 12.7 E 17 22 9 12 1010.6 1007.3 0.0
29/03:00am 27.7 22.1 1.2 18 13.0 E 20 28 11 15 1010.4 1007.0 0.0
29/02:30am 28.3 21.5 0.9 17 13.4 E 26 33 14 18 1010.3 1006.9 0.0
29/02:00am 28.4 22.5 1.8 18 13.3 E 22 30 12 16 1010.5 1007.1 0.0
29/01:30am 28.0 22.7 3.0 20 12.7 E 20 24 11 13 1010.6 1007.3 0.0
29/01:00am 28.2 23.9 3.1 20 12.8 E 15 19 8 10 1010.8 1007.5 0.0
29/12:30am 28.7 23.9 2.8 19 13.2 ESE 17 20 9 11 1010.9 1007.6 0.0
29/12:00am 29.1 24.3 2.4 18 13.5 ESE 17 19 9 10 1011.0 1007.7 0.0
 
Date/Time
WST
Temp
°C
App
Temp
°C
Dew
Point
Rel
Hum
%
Delta-T
°C
Wind Press
QNH
hPa
Press
MSL
hPa
Rain
since 9 am
mm
Dir
 
Spd
km/h
Gust
km/h
Spd
kts
Gust
kts
28/11:30pm 29.2 25.0 3.9 20 13.1 ESE 15 20 8 11 1011.0 1007.7 0.0
28/11:00pm 29.2 25.5 4.6 21 12.9 SE 13 19 7 10 1011.1 1007.8 0.0
28/10:30pm 29.1 25.4 4.6 21 12.9 SE 13 15 7 8 1011.1 1007.8 0.0
28/10:00pm 29.5 26.3 4.9 21 13.0 ESE 11 15 6 8 1011.1 1007.8 0.0
28/09:30pm 30.1 26.4 4.7 20 13.4 E 13 15 7 8 1011.0 1007.7 0.0
28/09:00pm 30.4 26.7 4.2 19 13.8 E 13 15 7 8 1010.9 1007.6 0.0
28/08:30pm 31.1 27.3 4.0 18 14.3 E 13 17 7 9 1010.6 1007.3 0.0
28/08:00pm 32.1 27.0 4.0 17 14.9 ENE 20 28 11 15 1010.5 1007.1 0.0
28/07:30pm 32.7 27.5 2.7 15 15.6 ENE 19 24 10 13 1010.1 1006.7 0.0
28/07:00pm 33.2 27.4 2.1 14 16.1 E 22 28 12 15 1009.8 1006.4 0.0
28/06:30pm 33.8 27.9 1.6 13 16.5 ESE 22 28 12 15 1009.4 1006.1 0.0
28/06:00pm 34.0 28.1 1.7 13 16.7 ESE 22 30 12 16 1009.1 1005.8 0.0
28/05:30pm 34.4 28.9 2.0 13 16.8 SSE 20 30 11 16 1008.8 1005.5 0.0
28/05:00pm 34.3 29.0 3.0 14 16.5 SE 20 30 11 16 1008.7 1005.4 0.0
28/04:30pm 34.6 29.7 2.2 13 16.9 E 17 30 9 16 1008.7 1005.4 0.0
28/04:00pm 34.9 30.1 2.4 13 17.0 ESE 17 30 9 16 1009.0 1005.7 0.0
28/03:30pm 34.9 30.6 3.5 14 16.7 SE 15 26 8 14 1009.1 1005.8 0.0
28/03:00pm 34.4 30.4 3.1 14 16.6 ENE 13 19 7 10 1009.5 1006.2 0.0
28/02:30pm 35.6 30.5 3.0 13 17.3 SE 19 33 10 18 1009.8 1006.4 0.0
28/02:00pm 34.7 30.0 3.3 14 16.7 ESE 17 32 9 17 1010.3 1006.9 0.0
28/01:30pm 34.9 29.9 4.4 15 16.5 ESE 20 32 11 17 1010.4 1007.0 0.0
28/01:00pm 34.7 30.4 5.2 16 16.1 ENE 17 32 9 17 1010.8 1007.5 0.0
28/12:30pm 34.3 30.5 5.8 17 15.7 ESE 15 26 8 14 1011.3 1008.0 0.0
28/12:00pm 32.8 28.5 5.4 18 14.9 ENE 17 30 9 16 1011.8 1008.5 0.0
28/11:30am 32.3 28.5 5.7 19 14.5 E 15 24 8 13 1012.3 1008.9 0.0
28/11:00am 31.1 27.0 6.2 21 13.6 ENE 17 24 9 13 1012.6 1009.3 0.0
28/10:30am 30.4 25.8 6.3 22 13.1 ENE 20 28 11 15 1012.8 1009.5 0.0
28/10:00am 28.8 23.9 6.8 25 12.0 E 22 32 12 17 1013.3 1010.0 0.0
28/09:30am 28.7 23.9 7.3 26 11.7 ENE 22 32 12 17 1013.5 1010.2 0.0
28/09:00am 26.7 21.4 6.7 28 10.7 E 24 32 13 17 1013.7 1010.4 0.0
28/08:30am 24.9 19.7 7.1 32 9.5 E 24 32 13 17 1013.8 1010.5 0.0
28/08:00am 23.9 19.0 6.7 33 9.1 E 22 30 12 16 1013.6 1010.3 0.0
28/07:30am 23.2 17.3 6.0 33 8.9 E 26 33 14 18 1013.4 1010.1 0.0
28/07:00am 23.3 18.0 5.2 31 9.3 E 22 33 12 18 1013.3 1010.0 0.0
28/06:30am 23.3 17.9 4.3 29 9.6 E 22 32 12 17 1013.1 1009.8 0.0
28/06:00am 24.0 18.7 2.8 25 10.4 E 20 28 11 15 1012.7 1009.4 0.0
28/05:30am 24.7 18.9 2.2 23 11.0 E 22 30 12 16 1012.5 1009.1 0.0
28/05:00am 25.0 18.4 1.8 22 11.3 E 26 33 14 18 1012.0 1008.6 0.0
28/04:30am 25.2 18.1 1.3 21 11.5 E 28 35 15 19 1011.4 1008.1 0.0
28/04:00am 25.4 17.5 0.8 20 11.8 E 32 41 17 22 1011.3 1008.0 0.0
28/03:30am 25.6 18.4 1.0 20 11.9 E 28 37 15 20 1011.4 1008.1 0.0
28/03:00am 25.9 18.7 0.5 19 12.2 E 28 37 15 20 1011.2 1007.9 0.0
28/02:30am 26.2 19.0 0.8 19 12.2 E 28 37 15 20 1011.1 1007.8 0.0
28/02:00am 26.6 19.5 1.1 19 12.4 E 28 37 15 20 1011.2 1007.9 0.0
28/01:30am 27.1 20.1 2.2 20 12.4 E 28 39 15 21 1011.1 1007.8 0.0
28/01:00am 27.3 20.4 2.4 20 12.5 E 28 37 15 20 1011.3 1008.0 0.0
28/12:30am 27.6 20.8 3.3 21 12.4 E 28 37 15 20 1011.3 1008.0 0.0
28/12:00am 28.1 21.0 3.7 21 12.6 E 30 37 16 20 1011.5 1008.2 0.0
 
Date/Time
WST
Temp
°C
App
Temp
°C
Dew
Point
Rel
Hum
%
Delta-T
°C
Wind Press
QNH
hPa
Press
MSL
hPa
Rain
since 9 am
mm
Dir
 
Spd
km/h
Gust
km/h
Spd
kts
Gust
kts
27/11:30pm 28.2 21.8 5.1 23 12.2 E 28 43 15 23 1011.6 1008.3 0.0
27/11:00pm 28.8 21.0 5.0 22 12.6 E 35 44 19 24 1011.5 1008.2 0.0
27/10:30pm 29.0 22.2 5.1 22 12.6 E 30 37 16 20 1011.7 1008.4 0.0
27/10:00pm 29.5 22.4 5.6 22 12.8 ESE 32 41 17 22 1012.0 1008.6 0.0
27/09:30pm 29.9 24.3 5.2 21 13.2 ESE 24 32 13 17 1011.8 1008.5 0.0
27/09:00pm 30.3 22.7 5.6 21 13.3 E 35 48 19 26 1011.7 1008.4 0.0
27/08:31pm 30.8 24.4 5.3 20 13.7 ESE 28 48 15 26 1011.2 1007.9 0.0
27/08:30pm 30.7 24.7 5.2 20 13.6 ESE 26 43 14 23 1011.2 1007.9 0.0
27/08:00pm 31.3 25.2 6.4 21 13.7 E 28 41 15 22 1010.9 1007.6 0.0
27/07:30pm 31.6 25.5 6.6 21 13.8 E 28 35 15 19 1010.5 1007.1 0.0
27/07:00pm 31.8 26.3 7.5 22 13.6 E 26 32 14 17 1010.3 1006.9 0.0
27/06:30pm 32.1 26.5 7.0 21 13.9 ESE 26 35 14 19 1010.2 1006.8 0.0
27/06:00pm 32.3 26.3 7.2 21 14.0 ESE 28 37 15 20 1010.0 1006.6 0.0
27/05:30pm 32.7 27.6 7.5 21 14.1 ESE 24 32 13 17 1009.7 1006.3 0.0
27/05:00pm 33.0 28.5 7.1 20 14.5 ESE 20 30 11 16 1009.5 1006.2 0.0
27/04:30pm 33.1 28.6 7.1 20 14.5 E 20 32 11 17 1009.5 1006.2 0.0
27/04:00pm 33.1 27.9 7.1 20 14.6 E 24 33 13 18 1009.7 1006.3 0.0
27/03:30pm 33.6 29.1 6.8 19 14.9 ENE 20 26 11 14 1009.8 1006.4 0.0
27/03:00pm 34.3 29.9 7.4 19 15.2 E 20 32 11 17 1010.1 1006.7 0.0
27/02:30pm 33.6 29.3 6.8 19 14.9 ESE 19 30 10 16 1010.3 1006.9 0.0

Other Formats:

Comma delimited format used in spreadsheet applications
http://www.bom.gov.au/fwo/IDW60801/IDW60801.94449.axf

JavaScript Object Notation format (JSON) in row-major order
http://www.bom.gov.au/fwo/IDW60801/IDW60801.94449.json